Time;durP1;ratioP1;P1;durP2;ratioP2;P2;SDS_P1;SDS_P2;PMS_P1;PMS_P2;Temp;Humidity;BMP_temperature;BMP_pressure;BME280_temperature;BME280_humidity;BME280_pressure;Samples;Min_cycle;Max_cycle;Signal;HPM_P1;HPM_P2
2022/03/25 00:02:24;;;;;;;29.25;20.58;;;10.20;59.30;;;;;;5092508;28;20618;-66
2022/03/25 00:04:52;;;;;;;26.83;19.85;;;10.10;59.60;;;;;;5091847;28;20202;-66
2022/03/25 00:07:19;;;;;;;32.10;18.77;;;10.00;59.70;;;;;;5091601;28;20222;-66
2022/03/25 00:09:45;;;;;;;28.67;20.15;;;9.90;60.80;;;;;;5094766;28;20202;-66
2022/03/25 00:12:12;;;;;;;29.85;20.63;;;9.90;60.90;;;;;;5095475;28;20222;-65
2022/03/25 00:14:39;;;;;;;28.40;19.40;;;9.80;61.00;;;;;;5095204;28;20209;-65
2022/03/25 00:17:07;;;;;;;28.83;19.70;;;9.70;61.40;;;;;;5095201;28;20217;-66
2022/03/25 00:19:35;;;;;;;28.15;18.95;;;9.60;62.20;;;;;;5095408;28;20202;-66
2022/03/25 00:22:02;;;;;;;30.08;19.40;;;9.60;62.70;;;;;;5095316;28;20668;-66
2022/03/25 00:24:29;;;;;;;30.00;19.85;;;9.60;63.20;;;;;;5095071;28;20208;-66
2022/03/25 00:26:56;;;;;;;29.67;18.98;;;9.60;63.20;;;;;;5095064;28;20205;-66
2022/03/25 00:29:22;;;;;;;29.08;20.45;;;9.60;64.00;;;;;;5095168;28;20321;-66
2022/03/25 00:31:49;;;;;;;32.78;20.45;;;9.50;64.40;;;;;;5095020;28;20718;-65
2022/03/25 00:34:16;;;;;;;32.67;20.15;;;9.50;64.20;;;;;;5094754;28;20241;-65
2022/03/25 00:36:44;;;;;;;31.13;20.30;;;9.40;64.20;;;;;;5094991;28;20292;-65
2022/03/25 00:39:11;;;;;;;30.40;19.00;;;9.40;64.10;;;;;;5095466;28;20222;-67
2022/03/25 00:41:38;;;;;;;31.92;20.17;;;9.50;63.90;;;;;;5096161;28;20604;-67
2022/03/25 00:44:06;;;;;;;29.25;20.85;;;9.50;63.90;;;;;;5096145;28;20198;-67
2022/03/25 00:46:33;;;;;;;28.77;20.73;;;9.40;64.00;;;;;;5095865;28;20698;-67
2022/03/25 00:49:00;;;;;;;27.08;19.90;;;9.40;64.90;;;;;;5095901;28;20559;-67
2022/03/25 00:51:28;;;;;;;29.35;19.45;;;9.40;64.90;;;;;;5095790;28;20198;-67
2022/03/25 00:53:56;;;;;;;29.00;20.17;;;9.40;65.20;;;;;;5095636;28;20229;-67
2022/03/25 00:56:24;;;;;;;29.20;19.38;;;9.50;65.40;;;;;;5095787;28;20297;-67
2022/03/25 00:58:51;;;;;;;28.33;20.25;;;9.50;64.90;;;;;;5095681;28;20261;-67
2022/03/25 01:01:18;;;;;;;26.95;20.02;;;9.50;64.90;;;;;;5095608;28;20206;-67
2022/03/25 01:03:44;;;;;;;30.30;19.88;;;9.40;64.60;;;;;;5095301;28;20226;-67
2022/03/25 01:06:12;;;;;;;31.02;20.23;;;9.40;65.30;;;;;;5095560;28;20285;-67
2022/03/25 01:08:38;;;;;;;26.65;18.75;;;9.30;65.90;;;;;;5095526;28;20226;-67
2022/03/25 01:11:07;;;;;;;28.50;19.67;;;9.20;66.10;;;;;;5095472;28;20293;-67
2022/03/25 01:13:34;;;;;;;30.83;20.63;;;9.30;66.60;;;;;;5095097;28;20695;-67
2022/03/25 01:16:02;;;;;;;30.20;19.75;;;9.30;66.60;;;;;;5095349;28;20217;-67
2022/03/25 01:18:29;;;;;;;28.33;19.65;;;9.30;66.50;;;;;;5095060;28;20699;-67
2022/03/25 01:20:57;;;;;;;29.42;21.45;;;9.20;66.80;;;;;;5094892;28;20282;-67
2022/03/25 01:23:24;;;;;;;29.33;20.27;;;9.00;67.30;;;;;;5095044;28;20198;-67
2022/03/25 01:25:51;;;;;;;26.83;18.65;;;9.00;68.10;;;;;;5095059;28;20198;-67
2022/03/25 01:28:19;;;;;;;27.60;19.13;;;9.00;68.10;;;;;;5094899;28;20727;-67
2022/03/25 01:30:46;;;;;;;27.67;18.70;;;9.00;68.30;;;;;;5095407;28;20251;-67
2022/03/25 01:33:13;;;;;;;28.17;19.08;;;9.00;69.10;;;;;;5094804;28;20237;-67
2022/03/25 01:35:41;;;;;;;29.15;20.17;;;8.90;69.50;;;;;;5095004;28;20206;-67
2022/03/25 01:38:08;;;;;;;33.92;21.25;;;8.80;69.90;;;;;;5094932;28;20248;-68
2022/03/25 01:40:35;;;;;;;27.42;20.38;;;8.80;70.50;;;;;;5094676;28;20687;-67
2022/03/25 01:43:02;;;;;;;30.50;20.20;;;8.60;70.60;;;;;;5094651;28;20198;-67
2022/03/25 01:45:34;;;;;;;29.25;20.25;;;8.50;70.90;;;;;;5094741;28;20259;-67
2022/03/25 01:48:02;;;;;;;28.35;19.15;;;8.40;71.30;;;;;;5094477;28;20734;-67
2022/03/25 01:50:29;;;;;;;30.83;20.23;;;8.40;71.90;;;;;;5094732;28;20251;-67
2022/03/25 01:52:56;;;;;;;32.03;21.35;;;8.50;72.10;;;;;;5094530;28;20304;-67
2022/03/25 01:55:26;;;;;;;27.02;18.50;;;8.30;72.50;;;;;;5094561;28;20202;-67
2022/03/25 01:57:57;;;;;;;32.28;20.10;;;8.10;73.60;;;;;;5094661;28;20238;-67
2022/03/25 02:00:25;;;;;;;30.23;19.50;;;8.10;74.80;;;;;;5094491;28;20600;-67
2022/03/25 02:02:53;;;;;;;30.25;19.17;;;8.20;75.30;;;;;;5094475;28;20201;-67
2022/03/25 02:05:20;;;;;;;27.83;19.27;;;8.20;74.80;;;;;;5094293;28;20198;-67
2022/03/25 02:07:47;;;;;;;28.95;18.80;;;8.30;74.20;;;;;;5094111;28;20230;-67
2022/03/25 02:10:14;;;;;;;28.65;20.20;;;8.40;73.90;;;;;;5094307;28;20209;-67
2022/03/25 02:12:41;;;;;;;27.67;19.98;;;8.40;73.60;;;;;;5094225;28;20222;-67
2022/03/25 02:15:09;;;;;;;33.63;18.77;;;8.40;73.80;;;;;;5094134;28;20198;-67
2022/03/25 02:17:36;;;;;;;29.98;18.63;;;8.30;73.90;;;;;;5094210;28;20310;-67
2022/03/25 02:20:09;;;;;;;27.75;20.05;;;8.40;74.40;;;;;;5094274;28;20202;-67
2022/03/25 02:22:38;;;;;;;28.33;19.75;;;8.30;74.10;;;;;;5094236;28;20229;-68
2022/03/25 02:25:09;;;;;;;29.75;19.45;;;8.30;74.40;;;;;;5093963;28;20202;-67
2022/03/25 02:27:37;;;;;;;29.77;19.45;;;8.30;74.40;;;;;;5093896;28;20233;-67
2022/03/25 02:30:07;;;;;;;28.50;21.05;;;8.30;74.40;;;;;;5094098;28;20190;-67
2022/03/25 02:32:34;;;;;;;31.17;19.63;;;8.10;74.30;;;;;;5092990;28;20707;-67
2022/03/25 02:35:02;;;;;;;31.20;21.92;;;8.00;75.10;;;;;;5093828;28;20205;-67
2022/03/25 02:37:28;;;;;;;30.58;19.48;;;7.80;75.40;;;;;;5093945;28;20257;-67
2022/03/25 02:39:57;;;;;;;27.52;19.70;;;7.80;76.20;;;;;;5093876;28;20198;-67
2022/03/25 02:42:24;;;;;;;28.70;19.50;;;7.90;76.40;;;;;;5093694;28;20205;-67
2022/03/25 02:44:51;;;;;;;28.42;18.98;;;8.00;76.70;;;;;;5093700;28;20560;-67
2022/03/25 02:47:18;;;;;;;28.70;18.35;;;8.00;76.30;;;;;;5093706;28;20549;-67
2022/03/25 02:49:44;;;;;;;26.23;19.23;;;8.00;76.50;;;;;;5093788;28;20289;-67
2022/03/25 02:52:11;;;;;;;28.45;20.48;;;8.00;77.00;;;;;;5093861;28;20297;-67
2022/03/25 02:54:38;;;;;;;31.60;21.42;;;8.00;77.00;;;;;;5093614;28;20300;-67
2022/03/25 02:57:07;;;;;;;31.50;20.48;;;7.80;77.00;;;;;;5093442;28;20213;-67
2022/03/25 02:59:33;;;;;;;29.77;20.13;;;7.70;77.10;;;;;;5093396;28;20301;-67
2022/03/25 03:02:00;;;;;;;26.85;18.45;;;7.60;77.00;;;;;;5093670;28;20301;-67
2022/03/25 03:04:27;;;;;;;30.70;19.05;;;7.70;77.20;;;;;;5093796;28;20301;-67
2022/03/25 03:06:54;;;;;;;29.58;19.33;;;7.70;77.20;;;;;;5093619;28;20209;-67
2022/03/25 03:09:21;;;;;;;27.23;19.90;;;7.80;77.50;;;;;;5093586;28;20222;-67
2022/03/25 03:11:48;;;;;;;25.70;17.58;;;7.70;77.70;;;;;;5093726;28;20292;-67
2022/03/25 03:14:16;;;;;;;29.35;20.20;;;7.80;77.70;;;;;;5093073;28;20221;-67
2022/03/25 03:16:43;;;;;;;32.65;19.15;;;7.70;77.30;;;;;;5093526;28;20293;-67
2022/03/25 03:19:10;;;;;;;32.42;20.13;;;7.70;78.20;;;;;;5093105;28;20312;-67
2022/03/25 03:21:36;;;;;;;32.38;19.77;;;7.60;78.80;;;;;;5093460;28;20632;-67
2022/03/25 03:24:04;;;;;;;31.85;19.27;;;7.60;79.30;;;;;;5093323;28;20210;-67
2022/03/25 03:26:31;;;;;;;32.08;20.50;;;7.50;79.90;;;;;;5093806;28;20206;-67
2022/03/25 03:28:58;;;;;;;30.33;18.65;;;7.40;80.20;;;;;;5093247;28;20258;-67
2022/03/25 03:31:26;;;;;;;28.83;20.27;;;7.40;80.80;;;;;;5093314;28;20205;-67
2022/03/25 03:33:53;;;;;;;28.15;18.15;;;7.40;81.40;;;;;;5093133;28;20244;-67
2022/03/25 03:36:19;;;;;;;29.80;19.80;;;7.40;81.10;;;;;;5093357;28;20203;-67
2022/03/25 03:38:47;;;;;;;28.63;19.23;;;7.50;80.50;;;;;;5093280;28;20763;-67
2022/03/25 03:41:14;;;;;;;29.50;19.67;;;7.60;80.10;;;;;;5093340;28;20296;-67
2022/03/25 03:43:41;;;;;;;26.15;18.20;;;7.60;79.70;;;;;;5095885;28;20194;-67
2022/03/25 03:46:08;;;;;;;30.08;18.65;;;7.50;79.80;;;;;;5097143;28;20209;-67
2022/03/25 03:48:36;;;;;;;26.13;19.23;;;7.20;80.60;;;;;;5097175;28;20272;-67
2022/03/25 03:51:03;;;;;;;30.00;18.55;;;7.10;82.00;;;;;;5097002;28;20771;-67
2022/03/25 03:53:30;;;;;;;30.95;19.65;;;7.20;82.70;;;;;;5096610;28;20224;-67
2022/03/25 03:55:56;;;;;;;32.75;19.73;;;7.20;83.00;;;;;;5096929;28;20205;-67
2022/03/25 03:58:23;;;;;;;29.42;19.77;;;7.30;83.60;;;;;;5096676;28;20226;-67
2022/03/25 04:00:50;;;;;;;31.67;20.23;;;7.30;83.40;;;;;;5096939;28;20545;-67
2022/03/25 04:03:17;;;;;;;27.08;19.98;;;7.30;83.50;;;;;;5096545;28;20206;-67
2022/03/25 04:05:46;;;;;;;29.02;19.85;;;7.30;83.60;;;;;;5097035;28;20217;-67
2022/03/25 04:08:12;;;;;;;28.95;19.48;;;7.30;84.50;;;;;;5096654;28;20265;-67
2022/03/25 04:10:39;;;;;;;30.65;20.27;;;7.40;82.60;;;;;;5096352;28;20217;-67
2022/03/25 04:13:06;;;;;;;27.75;18.42;;;7.40;82.10;;;;;;5096514;28;20296;-66
2022/03/25 04:15:34;;;;;;;28.75;19.92;;;7.40;82.00;;;;;;5096784;28;20206;-66
2022/03/25 04:18:01;;;;;;;30.63;18.23;;;7.40;82.00;;;;;;5096176;28;20224;-67
2022/03/25 04:20:28;;;;;;;34.40;20.20;;;7.50;82.50;;;;;;5096484;28;20214;-67
2022/03/25 04:22:56;;;;;;;28.40;19.58;;;7.50;82.60;;;;;;5096436;28;20204;-67
2022/03/25 04:25:23;;;;;;;31.75;20.75;;;7.40;82.60;;;;;;5096286;28;20212;-67
2022/03/25 04:27:52;;;;;;;30.85;20.67;;;7.10;83.20;;;;;;5096040;28;20230;-67
2022/03/25 04:30:21;;;;;;;26.30;19.45;;;7.20;84.60;;;;;;5096022;28;20206;-67
2022/03/25 04:32:48;;;;;;;29.40;20.77;;;7.20;84.90;;;;;;5095985;28;20705;-67
2022/03/25 04:35:14;;;;;;;28.60;19.83;;;7.00;85.40;;;;;;5096072;28;20205;-67
2022/03/25 04:37:41;;;;;;;32.15;21.42;;;7.00;86.00;;;;;;5095993;28;20358;-67
2022/03/25 04:40:11;;;;;;;29.15;21.20;;;6.90;86.20;;;;;;5095797;28;20682;-67
2022/03/25 04:42:38;;;;;;;29.42;20.55;;;6.80;86.40;;;;;;5096050;28;20204;-67
2022/03/25 04:45:06;;;;;;;29.83;19.63;;;6.80;86.30;;;;;;5095832;28;20198;-67
2022/03/25 04:47:33;;;;;;;29.05;18.42;;;6.80;86.00;;;;;;5095717;28;20230;-67
2022/03/25 04:49:59;;;;;;;30.02;19.80;;;6.80;86.00;;;;;;5095978;28;20633;-66
2022/03/25 04:52:27;;;;;;;30.33;18.88;;;6.90;86.00;;;;;;5095863;28;20208;-67
2022/03/25 04:54:53;;;;;;;29.63;19.63;;;6.90;86.10;;;;;;5094385;28;20228;-67
2022/03/25 04:57:22;;;;;;;27.13;18.60;;;7.00;85.90;;;;;;5095791;28;20237;-67
2022/03/25 04:59:48;;;;;;;31.00;20.00;;;7.00;86.00;;;;;;5095821;28;20593;-67
2022/03/25 05:02:15;;;;;;;32.17;19.45;;;7.10;85.40;;;;;;5095776;28;20209;-67
2022/03/25 05:04:42;;;;;;;29.67;20.73;;;7.00;85.30;;;;;;5095417;28;20241;-67
2022/03/25 05:07:14;;;;;;;28.23;19.73;;;7.00;85.30;;;;;;5095469;28;20202;-68
2022/03/25 05:09:41;;;;;;;31.67;20.10;;;6.90;85.60;;;;;;5095587;28;20201;-67
2022/03/25 05:12:09;;;;;;;28.88;19.20;;;6.80;86.60;;;;;;5095253;28;20676;-67
2022/03/25 05:14:37;;;;;;;32.22;19.90;;;6.90;86.90;;;;;;5095289;28;20229;-67
2022/03/25 05:17:04;;;;;;;29.55;20.02;;;7.00;86.80;;;;;;5095976;28;20581;-67
2022/03/25 05:19:31;;;;;;;28.17;18.85;;;7.00;86.20;;;;;;5095081;28;20206;-67
2022/03/25 05:21:58;;;;;;;27.10;19.30;;;6.90;86.30;;;;;;5095183;28;20202;-66
2022/03/25 05:24:26;;;;;;;30.83;20.45;;;6.90;86.30;;;;;;5095075;28;20202;-67
2022/03/25 05:26:53;;;;;;;34.83;19.65;;;6.80;86.20;;;;;;5095250;28;20233;-67
2022/03/25 05:29:20;;;;;;;30.35;20.08;;;6.80;86.60;;;;;;5094792;28;20230;-67
2022/03/25 05:31:48;;;;;;;33.13;19.75;;;6.70;86.90;;;;;;5095044;28;20259;-67
2022/03/25 05:34:15;;;;;;;35.13;20.33;;;6.70;87.10;;;;;;5094547;28;20695;-67
2022/03/25 05:36:42;;;;;;;31.50;20.58;;;6.70;86.90;;;;;;5095262;28;20233;-66
2022/03/25 05:39:08;;;;;;;32.67;20.45;;;6.60;87.20;;;;;;5094933;28;20222;-67
2022/03/25 05:41:35;;;;;;;32.33;20.38;;;6.60;87.60;;;;;;5094721;28;20293;-67
2022/03/25 05:44:02;;;;;;;26.27;18.20;;;6.60;87.80;;;;;;5094523;28;20194;-67
2022/03/25 05:46:29;;;;;;;30.70;20.35;;;6.70;87.80;;;;;;5094937;28;20206;-67
2022/03/25 05:48:57;;;;;;;29.38;20.40;;;6.80;87.30;;;;;;5094691;28;20579;-67
2022/03/25 05:51:24;;;;;;;30.63;19.35;;;6.60;88.10;;;;;;5094501;28;20237;-67
2022/03/25 05:53:51;;;;;;;30.38;19.70;;;6.70;88.50;;;;;;5094462;28;20309;-67
2022/03/25 05:56:17;;;;;;;32.80;20.27;;;6.70;89.90;;;;;;5094619;28;20293;-66
2022/03/25 05:58:44;;;;;;;32.00;20.33;;;6.60;91.50;;;;;;5094559;28;20316;-67
2022/03/25 06:01:11;;;;;;;31.35;20.55;;;6.70;91.20;;;;;;5094517;28;20198;-67
2022/03/25 06:03:38;;;;;;;35.28;21.05;;;6.90;91.20;;;;;;5094470;28;20672;-67
2022/03/25 06:06:07;;;;;;;30.05;19.85;;;7.00;90.30;;;;;;5094391;28;20198;-67
2022/03/25 06:08:34;;;;;;;31.42;21.42;;;7.10;89.80;;;;;;5094106;28;20230;-67
2022/03/25 06:11:01;;;;;;;29.50;21.05;;;7.20;90.30;;;;;;5094367;28;20206;-67
2022/03/25 06:13:28;;;;;;;31.17;21.48;;;7.20;90.90;;;;;;5094094;28;20582;-67
2022/03/25 06:15:55;;;;;;;35.80;23.15;;;7.20;90.10;;;;;;5094155;28;20212;-66
2022/03/25 06:18:23;;;;;;;33.53;23.15;;;7.30;89.20;;;;;;5093960;28;20218;-67
2022/03/25 06:20:50;;;;;;;30.83;22.23;;;7.40;88.70;;;;;;5094275;28;20208;-67
2022/03/25 06:23:18;;;;;;;31.95;22.88;;;7.40;88.00;;;;;;5093765;28;20668;-66
2022/03/25 06:25:45;;;;;;;31.20;22.00;;;7.40;87.90;;;;;;5093817;28;20745;-67
2022/03/25 06:28:13;;;;;;;31.02;21.30;;;7.50;87.60;;;;;;5093781;28;20321;-66
2022/03/25 06:30:40;;;;;;;31.60;21.90;;;7.50;88.00;;;;;;5094020;28;20209;-67
2022/03/25 06:33:09;;;;;;;32.47;21.50;;;7.50;90.50;;;;;;5093723;28;20236;-67
2022/03/25 06:35:37;;;;;;;33.35;22.60;;;7.50;89.20;;;;;;5093944;28;20206;-67
2022/03/25 06:38:04;;;;;;;33.08;22.27;;;7.50;90.40;;;;;;5093713;28;20407;-67
2022/03/25 06:40:33;;;;;;;31.23;21.95;;;7.50;89.80;;;;;;5093929;28;20247;-67
2022/03/25 06:43:00;;;;;;;34.30;23.08;;;7.50;89.60;;;;;;5093610;28;20687;-67
2022/03/25 06:45:28;;;;;;;34.58;22.10;;;7.50;89.70;;;;;;5093883;28;20288;-67
2022/03/25 06:47:55;;;;;;;32.90;23.25;;;7.60;89.10;;;;;;5094082;28;20265;-67
2022/03/25 06:50:24;;;;;;;31.63;22.33;;;7.60;89.30;;;;;;5093853;28;20224;-67
2022/03/25 06:52:51;;;;;;;35.15;21.98;;;7.50;89.70;;;;;;5093782;28;20545;-67
2022/03/25 06:55:19;;;;;;;34.20;22.90;;;7.60;89.00;;;;;;5093660;28;20565;-67
2022/03/25 06:57:48;;;;;;;35.75;22.10;;;7.50;89.30;;;;;;5093614;28;20225;-67
2022/03/25 07:00:16;;;;;;;36.42;24.05;;;7.30;89.30;;;;;;5093884;28;20202;-67
2022/03/25 07:02:44;;;;;;;34.03;23.10;;;7.10;90.30;;;;;;5093754;28;20198;-67
2022/03/25 07:05:12;;;;;;;34.85;23.90;;;7.00;90.70;;;;;;5093430;28;20210;-67
2022/03/25 07:07:40;;;;;;;34.45;23.40;;;7.00;90.70;;;;;;5093418;28;20718;-67
2022/03/25 07:10:09;;;;;;;33.50;22.98;;;6.90;90.20;;;;;;5093569;28;20681;-67
2022/03/25 07:12:37;;;;;;;31.55;21.83;;;6.90;90.80;;;;;;5093539;28;20202;-67
2022/03/25 07:15:07;;;;;;;29.95;22.75;;;6.90;90.50;;;;;;5093321;28;20229;-67
2022/03/25 07:17:34;;;;;;;30.58;22.45;;;7.10;90.10;;;;;;5094462;28;20749;-67
2022/03/25 07:20:01;;;;;;;31.85;22.17;;;7.20;90.30;;;;;;5097685;28;20202;-67
2022/03/25 07:22:28;;;;;;;31.77;22.90;;;7.40;89.40;;;;;;5097592;28;20201;-67
2022/03/25 07:24:55;;;;;;;32.53;22.30;;;7.60;88.10;;;;;;5097170;28;20198;-67
2022/03/25 07:27:22;;;;;;;31.95;22.13;;;7.70;88.50;;;;;;5097314;28;20218;-67
2022/03/25 07:29:49;;;;;;;32.38;23.52;;;7.70;86.90;;;;;;5097560;28;20202;-67
2022/03/25 07:32:17;;;;;;;32.88;22.83;;;7.70;86.10;;;;;;5097405;28;20202;-67
2022/03/25 07:34:44;;;;;;;30.52;22.00;;;7.80;85.50;;;;;;5097269;28;20253;-67
2022/03/25 07:37:11;;;;;;;34.78;22.98;;;7.90;85.30;;;;;;5097223;28;20206;-67
2022/03/25 07:39:37;;;;;;;30.90;22.23;;;7.90;84.20;;;;;;5097292;28;20267;-67
2022/03/25 07:42:05;;;;;;;35.05;22.70;;;7.80;85.20;;;;;;5097245;28;20214;-67
2022/03/25 07:44:33;;;;;;;32.75;22.10;;;7.80;85.10;;;;;;5097029;28;20275;-67
2022/03/25 07:47:00;;;;;;;32.60;23.10;;;7.80;86.20;;;;;;5097164;28;20256;-67
2022/03/25 07:49:28;;;;;;;38.25;23.80;;;7.90;84.00;;;;;;5097207;28;20247;-67
2022/03/25 07:51:55;;;;;;;30.63;22.17;;;7.90;84.20;;;;;;5096996;28;20202;-67
2022/03/25 07:54:22;;;;;;;32.22;22.98;;;8.10;83.60;;;;;;5096548;28;20796;-67
2022/03/25 07:56:48;;;;;;;32.35;22.85;;;8.30;84.30;;;;;;5096978;28;20208;-67
2022/03/25 07:59:15;;;;;;;35.78;22.48;;;8.40;82.90;;;;;;5096602;28;20309;-67
2022/03/25 08:01:42;;;;;;;32.70;22.15;;;8.40;82.00;;;;;;5096893;28;20563;-67
2022/03/25 08:04:09;;;;;;;33.42;22.95;;;8.40;83.30;;;;;;5096526;28;20285;-67
2022/03/25 08:06:37;;;;;;;35.97;21.88;;;8.40;84.70;;;;;;5096693;28;20202;-67
2022/03/25 08:09:04;;;;;;;33.60;24.10;;;8.40;84.40;;;;;;5096724;28;20226;-67
2022/03/25 08:11:31;;;;;;;31.55;22.95;;;8.60;82.40;;;;;;5096445;28;20206;-67
2022/03/25 08:13:58;;;;;;;32.30;22.55;;;8.70;83.30;;;;;;5096319;28;20317;-67
2022/03/25 08:16:24;;;;;;;34.13;23.40;;;8.90;83.10;;;;;;5096499;28;20301;-67
2022/03/25 08:18:51;;;;;;;35.92;24.65;;;9.10;81.90;;;;;;5096467;28;20579;-67
2022/03/25 08:21:18;;;;;;;33.58;23.65;;;9.10;82.80;;;;;;5096226;28;20695;-67
2022/03/25 08:29:17;;;;;;;35.80;23.30;;;9.30;80.60;;;;;;5094748;28;20257;-67
2022/03/25 08:31:44;;;;;;;34.75;23.73;;;9.40;80.50;;;;;;5096264;28;20209;-67
2022/03/25 08:34:15;;;;;;;36.00;24.30;;;9.60;80.50;;;;;;5096054;28;20309;-67
2022/03/25 08:36:42;;;;;;;32.13;23.00;;;9.70;79.70;;;;;;5096036;28;20633;-67
2022/03/25 08:39:10;;;;;;;35.20;24.33;;;9.80;80.30;;;;;;5096197;28;20611;-67
2022/03/25 08:41:37;;;;;;;33.92;24.55;;;9.80;77.00;;;;;;5096505;28;20206;-67
2022/03/25 08:44:04;;;;;;;35.80;24.67;;;10.00;77.10;;;;;;5095968;28;20202;-67
2022/03/25 08:46:32;;;;;;;33.35;24.13;;;10.20;76.50;;;;;;5096041;28;20205;-67
2022/03/25 08:48:58;;;;;;;34.47;25.58;;;10.30;74.50;;;;;;5095639;28;20224;-67
2022/03/25 08:51:25;;;;;;;40.90;26.02;;;10.60;75.00;;;;;;5095933;28;20292;-67
2022/03/25 08:53:53;;;;;;;33.08;24.60;;;10.80;72.70;;;;;;5095583;28;20259;-67
2022/03/25 08:56:21;;;;;;;37.17;25.45;;;11.10;73.90;;;;;;5095605;28;20202;-67
2022/03/25 08:58:48;;;;;;;33.53;25.02;;;11.70;72.50;;;;;;5095772;28;20308;-67
2022/03/25 09:01:15;;;;;;;34.25;24.20;;;12.30;70.00;;;;;;5095711;28;20202;-67
2022/03/25 09:03:42;;;;;;;34.03;24.85;;;12.90;68.20;;;;;;5095281;28;20237;-67
2022/03/25 09:06:10;;;;;;;34.20;25.42;;;13.30;65.10;;;;;;5095634;28;20306;-67
2022/03/25 09:08:37;;;;;;;32.55;24.73;;;13.50;65.80;;;;;;5095433;28;20272;-67
2022/03/25 09:11:03;;;;;;;35.33;25.50;;;13.60;64.40;;;;;;5095541;28;20293;-67
2022/03/25 09:13:32;;;;;;;38.22;26.65;;;13.60;64.20;;;;;;5095372;28;20222;-68
2022/03/25 09:15:59;;;;;;;39.25;26.10;;;13.60;62.70;;;;;;5095362;28;20229;-68
2022/03/25 09:18:26;;;;;;;39.10;25.83;;;13.40;61.50;;;;;;5095098;28;20234;-67
2022/03/25 09:20:52;;;;;;;40.92;27.33;;;13.10;60.80;;;;;;5095370;28;20266;-67
2022/03/25 09:23:19;;;;;;;33.53;24.88;;;13.10;60.90;;;;;;5095073;28;20758;-67
2022/03/25 09:25:46;;;;;;;38.25;26.25;;;13.30;62.50;;;;;;5095433;28;20198;-67
2022/03/25 09:28:13;;;;;;;34.38;23.75;;;13.30;60.10;;;;;;5094993;28;20226;-67
2022/03/25 09:30:42;;;;;;;40.88;27.30;;;13.20;61.80;;;;;;5079067;28;20210;-68
2022/03/25 09:33:09;;;;;;;37.40;26.40;;;13.20;60.50;;;;;;5093969;28;20302;-68
2022/03/25 09:35:36;;;;;;;37.55;25.08;;;13.20;59.60;;;;;;5094093;28;20222;-68
2022/03/25 09:38:03;;;;;;;38.65;25.60;;;13.30;58.90;;;;;;5094228;28;20317;-68
2022/03/25 09:40:30;;;;;;;36.78;23.45;;;13.30;60.20;;;;;;5093549;28;20198;-67
2022/03/25 09:42:58;;;;;;;37.70;25.63;;;13.40;59.70;;;;;;5093739;28;20201;-67
2022/03/25 09:45:26;;;;;;;35.97;24.50;;;13.50;57.40;;;;;;5093872;28;20206;-68
2022/03/25 09:47:55;;;;;;;36.97;25.38;;;13.70;57.70;;;;;;5093903;28;20222;-67
2022/03/25 09:50:24;;;;;;;37.10;25.20;;;13.90;57.30;;;;;;5094061;28;20561;-67
2022/03/25 09:52:53;;;;;;;35.58;25.48;;;14.70;56.90;;;;;;5093467;28;20694;-68
2022/03/25 09:55:20;;;;;;;39.40;27.02;;;15.70;53.70;;;;;;5093900;28;20228;-68
2022/03/25 09:57:47;;;;;;;35.40;26.27;;;16.80;53.90;;;;;;5093808;28;20313;-67
2022/03/25 10:00:16;;;;;;;36.53;26.42;;;17.20;49.90;;;;;;5085905;28;20664;-68
2022/03/25 10:02:43;;;;;;;40.58;27.15;;;17.30;47.90;;;;;;5086847;28;20298;-66
2022/03/25 10:05:19;;;;;;;39.03;26.40;;;18.20;46.80;;;;;;5093057;28;20202;-67
2022/03/25 10:07:47;;;;;;;36.95;26.98;;;18.40;46.80;;;;;;5093977;28;20475;-67
2022/03/25 10:10:15;;;;;;;39.10;27.17;;;18.30;45.70;;;;;;5094459;28;20206;-67
2022/03/25 10:12:44;;;;;;;40.80;28.95;;;18.50;44.80;;;;;;5094510;28;20204;-67
2022/03/25 10:15:14;;;;;;;41.63;28.40;;;18.20;44.30;;;;;;5093888;28;20221;-67
2022/03/25 10:17:53;;;;;;;35.80;25.83;;;18.40;44.60;;;;;;5094179;28;20618;-67
2022/03/25 10:20:24;;;;;;;39.40;28.33;;;18.80;45.20;;;;;;5094282;28;20211;-67
2022/03/25 10:23:03;;;;;;;37.00;26.97;;;19.60;42.60;;;;;;5093998;28;20443;-68
2022/03/25 10:25:38;;;;;;;37.23;28.17;;;21.60;41.20;;;;;;5094282;28;20438;-67
2022/03/25 10:28:17;;;;;;;32.80;28.57;;;22.80;36.50;;;;;;5094000;28;20521;-68
2022/03/25 10:30:44;;;;;;;35.27;29.27;;;23.70;34.50;;;;;;5094148;28;20447;-68
2022/03/25 10:33:12;;;;;;;37.07;29.23;;;24.50;33.90;;;;;;5093883;28;20534;-68
2022/03/25 10:36:01;;;;;;;33.33;27.40;;;24.50;33.90;;;;;;5093802;28;21003;-68
2022/03/25 10:38:41;;;;;;;37.63;30.57;;;25.00;33.50;;;;;;5093755;28;20463;-68
2022/03/25 10:41:08;;;;;;;30.73;27.43;;;25.70;32.90;;;;;;5093950;28;20444;-68
2022/03/25 10:43:35;;;;;;;34.17;30.53;;;25.90;32.30;;;;;;5094019;28;20619;-67
2022/03/25 10:46:02;;;;;;;39.13;29.77;;;25.40;32.00;;;;;;5093870;28;20478;-68
2022/03/25 10:48:29;;;;;;;38.47;29.97;;;24.70;32.10;;;;;;5093588;28;20459;-68
2022/03/25 10:51:08;;;;;;;33.47;28.33;;;24.00;33.10;;;;;;5093873;28;20804;-68
2022/03/25 10:53:37;;;;;;;37.40;29.80;;;23.80;33.90;;;;;;5093048;28;20514;-68
2022/03/25 10:56:06;;;;;;;39.90;30.37;;;24.20;34.70;;;;;;5093746;28;20442;-68
2022/03/25 10:58:34;;;;;;;36.13;29.23;;;24.30;34.10;;;;;;5093661;28;20459;-67
2022/03/25 11:01:01;;;;;;;36.70;30.17;;;23.90;33.90;;;;;;5093773;28;20807;-67
2022/03/25 11:03:28;;;;;;;36.77;29.50;;;23.00;33.90;;;;;;5093508;28;20447;-68
2022/03/25 11:05:56;;;;;;;36.27;28.77;;;23.00;34.50;;;;;;5093616;28;20831;-67
2022/03/25 11:08:24;;;;;;;37.60;28.27;;;22.60;34.50;;;;;;5093340;28;20468;-68
2022/03/25 11:10:53;;;;;;;35.50;29.10;;;23.30;35.50;;;;;;5093613;28;20486;-68
2022/03/25 11:13:22;;;;;;;32.80;28.13;;;24.00;34.60;;;;;;5093157;28;20457;-68
2022/03/25 11:15:52;;;;;;;34.87;28.53;;;24.10;33.10;;;;;;5093568;28;20471;-68
2022/03/25 11:18:21;;;;;;;33.53;29.93;;;24.80;33.00;;;;;;5093209;28;20464;-68
2022/03/25 11:20:48;;;;;;;32.47;28.17;;;25.80;31.20;;;;;;5093455;28;20440;-68
2022/03/25 11:23:20;;;;;;;33.20;29.00;;;25.90;31.60;;;;;;5093420;28;20454;-68
2022/03/25 11:25:53;;;;;;;33.57;29.70;;;26.90;30.80;;;;;;5093440;28;20483;-68
2022/03/25 11:28:30;;;;;;;35.30;30.73;;;27.70;30.10;;;;;;5093337;28;20570;-68
2022/03/25 11:30:58;;;;;;;33.23;29.10;;;27.90;29.20;;;;;;5093235;28;20921;-68
2022/03/25 11:33:25;;;;;;;32.90;29.37;;;28.50;28.70;;;;;;5093217;28;20851;-68
2022/03/25 11:36:14;;;;;;;32.00;28.47;;;29.00;28.10;;;;;;5093375;28;20446;-68
2022/03/25 11:38:41;;;;;;;29.97;26.97;;;29.00;27.20;;;;;;5093299;28;20598;-68
2022/03/25 11:41:33;;;;;;;31.77;28.40;;;29.50;27.50;;;;;;5093020;28;20968;-68
2022/03/25 11:44:18;;;;;;;31.83;28.60;;;28.70;26.00;;;;;;5077888;28;20446;-68
2022/03/25 11:47:13;;;;;;;35.20;29.40;;;28.50;27.10;;;;;;5092984;28;20959;-68
2022/03/25 11:49:40;;;;;;;33.10;27.93;;;27.70;27.40;;;;;;5093252;28;20440;-67
2022/03/25 11:52:29;;;;;;;31.60;27.67;;;26.00;28.70;;;;;;5093034;28;20521;-68
2022/03/25 11:54:58;;;;;;;32.07;27.37;;;25.30;29.40;;;;;;5093106;28;20458;-68
2022/03/25 11:57:29;;;;;;;28.57;25.50;;;25.00;29.90;;;;;;5093193;28;20471;-68
2022/03/25 11:59:58;;;;;;;28.93;25.83;;;25.40;29.80;;;;;;5093182;28;20435;-68
2022/03/25 12:02:29;;;;;;;29.13;26.03;;;25.80;29.20;;;;;;5093210;28;20533;-68
2022/03/25 12:04:56;;;;;;;31.20;27.80;;;25.70;29.50;;;;;;5095975;28;20436;-68
2022/03/25 12:07:23;;;;;;;30.07;26.87;;;25.30;29.90;;;;;;5096637;28;20468;-68
2022/03/25 12:09:50;;;;;;;32.53;27.20;;;24.70;29.70;;;;;;5096744;28;20453;-67
2022/03/25 12:12:17;;;;;;;31.87;27.10;;;24.00;30.00;;;;;;5096636;28;20444;-67
2022/03/25 12:15:07;;;;;;;31.30;26.93;;;22.60;31.90;;;;;;5096733;28;20450;-67
2022/03/25 12:17:35;;;;;;;31.90;25.17;;;22.20;33.20;;;;;;5096439;28;20474;-68
2022/03/25 12:20:02;;;;;;;29.20;25.37;;;21.80;33.60;;;;;;5096634;28;20440;-68
2022/03/25 12:22:37;;;;;;;25.43;21.87;;;21.00;31.70;;;;;;5096644;28;20446;-67
2022/03/25 12:25:17;;;;;;;24.30;21.40;;;20.30;32.60;;;;;;5096146;28;20987;-67
2022/03/25 12:27:44;;;;;;;27.97;22.73;;;20.10;33.10;;;;;;5096170;28;20470;-67
2022/03/25 12:30:14;;;;;;;30.70;23.83;;;20.00;34.10;;;;;;5096465;28;20806;-67
2022/03/25 12:32:42;;;;;;;28.03;22.40;;;19.80;34.20;;;;;;5096363;28;20445;-67
2022/03/25 12:35:11;;;;;;;28.37;23.50;;;19.80;35.10;;;;;;5096075;28;20445;-67
2022/03/25 12:37:51;;;;;;;34.20;24.53;;;20.00;35.10;;;;;;5096394;28;20468;-67
2022/03/25 12:40:20;;;;;;;32.93;25.63;;;20.20;35.30;;;;;;5096185;28;20459;-67
2022/03/25 12:42:50;;;;;;;35.50;26.57;;;20.00;35.70;;;;;;5096027;28;20935;-67
2022/03/25 12:45:26;;;;;;;28.60;24.00;;;19.80;36.10;;;;;;5095757;28;20477;-67